Time;durP1;ratioP1;P1;durP2;ratioP2;P2;SDS_P1;SDS_P2;PMS_P1;PMS_P2;Temp;Humidity;BMP_temperature;BMP_pressure;BME280_temperature;BME280_humidity;BME280_pressure;Samples;Min_cycle;Max_cycle;Signal;HPM_P1;HPM_P2
2022/11/04 00:02:02;;;;;;;30.70;21.80;;;;;;;8.55;100.00;98409.50;106301;1278;61062;-78
2022/11/04 00:04:29;;;;;;;29.10;20.50;;;;;;;8.53;100.00;98402.38;106304;1285;63997;-79
2022/11/04 00:06:56;;;;;;;27.40;20.20;;;;;;;8.52;100.00;98407.63;106209;1284;58939;-78
2022/11/04 00:09:28;;;;;;;26.80;20.90;;;;;;;8.51;100.00;98406.48;106285;1285;58794;-78
2022/11/04 00:14:43;;;;;;;30.40;21.40;;;;;;;8.47;100.00;98395.41;106337;1285;59319;-78
2022/11/04 00:17:21;;;;;;;30.90;22.10;;;;;;;8.45;100.00;98388.65;106289;1282;63769;-77
2022/11/04 00:33:47;;;;;;;27.30;19.90;;;;;;;8.38;100.00;98366.61;106292;1279;58951;-78
2022/11/04 00:36:15;;;;;;;27.00;19.80;;;;;;;8.37;100.00;98359.05;106309;1285;58840;-78
2022/11/04 00:38:41;;;;;;;28.60;20.10;;;;;;;8.38;100.00;98357.08;106318;1286;66224;-78
2022/11/04 00:41:24;;;;;;;27.60;19.50;;;;;;;8.36;100.00;98359.95;106308;1285;59756;-78
2022/11/04 00:43:52;;;;;;;26.70;18.70;;;;;;;8.36;100.00;98360.14;106288;1285;63946;-78
2022/11/04 00:46:19;;;;;;;29.00;20.40;;;;;;;8.35;100.00;98353.15;106262;1293;58844;-78
2022/11/04 00:48:47;;;;;;;32.70;20.10;;;;;;;8.34;100.00;98351.64;106044;1291;58824;-78
2022/11/04 00:51:14;;;;;;;27.80;20.60;;;;;;;8.33;100.00;98344.93;106316;1286;65847;-77
2022/11/04 00:53:41;;;;;;;27.70;20.50;;;;;;;8.34;100.00;98343.29;106306;1279;68091;-77
2022/11/04 00:56:07;;;;;;;29.20;20.00;;;;;;;8.34;100.00;98341.87;106301;1286;64761;-77
2022/11/04 00:58:34;;;;;;;28.80;20.50;;;;;;;8.35;100.00;98337.08;106314;1285;59183;-78
2022/11/04 01:01:07;;;;;;;27.90;21.00;;;;;;;8.35;100.00;98331.73;106312;1285;59018;-78
2022/11/04 01:03:34;;;;;;;27.00;19.70;;;;;;;8.34;100.00;98327.00;106292;1279;66774;-77
2022/11/04 01:06:00;;;;;;;24.20;20.20;;;;;;;8.33;100.00;98330.42;106311;1285;60756;-77
2022/11/04 01:08:27;;;;;;;27.50;20.70;;;;;;;8.33;100.00;98330.59;106042;1291;64937;-79
2022/11/04 01:10:54;;;;;;;26.80;19.30;;;;;;;8.34;100.00;98327.36;106316;1286;58918;-78
2022/11/04 01:13:21;;;;;;;27.80;19.80;;;;;;;8.33;100.00;98325.47;106325;1292;58814;-77
2022/11/04 01:15:48;;;;;;;25.70;20.20;;;;;;;8.33;100.00;98323.37;106354;1286;66913;-78
2022/11/04 01:18:14;;;;;;;30.90;19.30;;;;;;;8.33;100.00;98320.91;106349;1285;60839;-78
2022/11/04 01:20:42;;;;;;;28.00;20.00;;;;;;;8.33;100.00;98315.92;106366;1285;63741;-78
2022/11/04 01:23:08;;;;;;;28.50;19.20;;;;;;;8.34;100.00;98313.23;106336;1278;59029;-78
2022/11/04 01:25:39;;;;;;;27.60;19.00;;;;;;;8.34;100.00;98311.45;106090;1286;59148;-78
2022/11/04 01:28:06;;;;;;;25.80;19.40;;;;;;;8.33;100.00;98308.85;106353;1285;65826;-78
2022/11/04 01:30:33;;;;;;;26.40;19.00;;;;;;;8.32;100.00;98302.54;106352;1285;60898;-78
2022/11/04 01:33:00;;;;;;;28.00;20.20;;;;;;;8.32;100.00;98300.25;106352;1285;63714;-78
2022/11/04 01:35:26;;;;;;;24.20;18.70;;;;;;;8.33;100.00;98298.98;106328;1286;58861;-78
2022/11/04 01:37:53;;;;;;;31.60;19.30;;;;;;;8.34;100.00;98291.80;106357;1278;58903;-78
2022/11/04 01:40:20;;;;;;;25.70;18.50;;;;;;;8.35;100.00;98287.87;106079;1288;66826;-78
2022/11/04 01:42:46;;;;;;;27.10;20.40;;;;;;;8.36;100.00;98284.93;106358;1279;59899;-79
2022/11/04 01:45:16;;;;;;;29.50;18.70;;;;;;;8.38;100.00;98282.88;106335;1284;64870;-78
2022/11/04 01:47:58;;;;;;;23.50;18.70;;;;;;;8.39;100.00;98283.17;106356;1284;58998;-79
2022/11/04 01:50:31;;;;;;;25.70;18.10;;;;;;;8.40;100.00;98279.93;106383;1284;59072;-79
2022/11/04 01:53:15;;;;;;;26.50;18.60;;;;;;;8.40;100.00;98281.51;106337;1285;65953;-78
2022/11/04 01:55:55;;;;;;;27.60;18.70;;;;;;;8.40;100.00;98275.88;106239;1289;58931;-78
2022/11/04 01:58:27;;;;;;;27.30;18.90;;;;;;;8.39;100.00;98269.21;106339;1292;64773;-78
2022/11/04 02:00:54;;;;;;;25.00;19.50;;;;;;;8.39;100.00;98265.11;106345;1286;58911;-78
2022/11/04 02:03:27;;;;;;;27.10;17.90;;;;;;;8.38;100.00;98253.69;106328;1285;58875;-78
2022/11/04 02:05:54;;;;;;;25.90;19.00;;;;;;;8.36;100.00;98252.20;106246;1281;67255;-79
2022/11/04 02:08:21;;;;;;;26.90;18.50;;;;;;;8.35;100.00;98246.77;106341;1286;60756;-78
2022/11/04 02:10:54;;;;;;;20.70;17.80;;;;;;;8.35;100.00;98240.59;106097;1288;62554;-78
2022/11/04 02:13:21;;;;;;;23.70;16.70;;;;;;;8.33;100.00;98243.33;106327;1285;58768;-78
2022/11/04 02:16:05;;;;;;;22.90;17.10;;;;;;;8.34;100.00;98248.23;106350;1284;59177;-78
2022/11/04 02:18:54;;;;;;;23.60;17.70;;;;;;;8.35;100.00;98239.70;106352;1286;66784;-78
2022/11/04 02:21:32;;;;;;;25.40;18.00;;;;;;;8.37;100.00;98241.19;106359;1284;59684;-78
2022/11/04 02:24:20;;;;;;;23.10;15.90;;;;;;;8.38;100.00;98231.23;106352;1286;64797;-78
2022/11/04 02:27:05;;;;;;;22.50;17.10;;;;;;;8.39;100.00;98229.89;106304;1286;58965;-78
2022/11/04 02:29:42;;;;;;;25.30;16.40;;;;;;;8.42;100.00;98231.96;106354;1285;58875;-78
2022/11/04 02:32:36;;;;;;;23.70;15.90;;;;;;;8.46;100.00;98229.60;106223;1288;66797;-78
2022/11/04 02:35:06;;;;;;;20.90;13.90;;;;;;;8.49;100.00;98223.38;106391;1286;58873;-78
2022/11/04 02:37:56;;;;;;;19.30;13.30;;;;;;;8.52;100.00;98222.79;106331;1291;65128;-78
2022/11/04 02:40:32;;;;;;;18.00;13.40;;;;;;;8.55;100.00;98223.65;105769;1294;58986;-77
2022/11/04 02:43:31;;;;;;;17.20;12.10;;;;;;;8.58;100.00;98223.41;105677;1287;58930;-78
2022/11/04 02:46:24;;;;;;;19.90;13.60;;;;;;;8.62;100.00;98220.65;105226;1300;66863;-79
2022/11/04 02:49:12;;;;;;;19.30;12.90;;;;;;;8.66;100.00;98220.23;104655;1305;59230;-78
2022/11/04 02:51:52;;;;;;;17.70;13.40;;;;;;;8.70;100.00;98213.35;104262;1309;64298;-78
2022/11/04 02:54:27;;;;;;;19.90;13.40;;;;;;;8.73;100.00;98210.30;104283;1309;59320;-78
2022/11/04 02:56:57;;;;;;;16.00;12.90;;;;;;;8.75;100.00;98207.52;104304;1309;59257;-78
2022/11/04 02:59:40;;;;;;;;;;;;;;;8.75;100.00;98204.33;104308;1308;65863;-79
2022/11/04 03:02:13;;;;;;;20.30;14.30;;;;;;;8.74;100.00;98199.78;104297;1309;60908;-78
2022/11/04 03:04:44;;;;;;;18.30;12.90;;;;;;;8.73;100.00;98198.07;104303;1307;63940;-78
2022/11/04 03:07:14;;;;;;;15.40;12.40;;;;;;;8.73;100.00;98197.73;104272;1309;59039;-78
2022/11/04 03:09:48;;;;;;;16.70;13.30;;;;;;;8.74;100.00;98193.95;104297;1309;59128;-78
2022/11/04 03:12:19;;;;;;;19.40;13.00;;;;;;;8.73;100.00;98187.13;104287;1301;66869;-78
2022/11/04 03:14:53;;;;;;;18.10;13.20;;;;;;;8.70;100.00;98188.02;104308;1309;60780;-78
2022/11/04 03:17:31;;;;;;;28.90;20.80;;;;;;;8.67;100.00;98186.82;104363;1305;63839;-78
2022/11/04 03:19:59;;;;;;;21.80;15.30;;;;;;;8.64;100.00;98188.80;104636;1305;59057;-78
2022/11/04 03:22:29;;;;;;;22.90;16.70;;;;;;;8.62;100.00;98189.82;104693;1305;58981;-78
2022/11/04 03:24:56;;;;;;;21.20;13.80;;;;;;;8.61;100.00;98196.13;105153;1302;65982;-78
2022/11/04 03:27:32;;;;;;;20.30;14.20;;;;;;;8.60;100.00;98197.48;105758;1295;59021;-78
2022/11/04 03:30:04;;;;;;;16.00;13.60;;;;;;;8.58;100.00;98192.08;106144;1288;63821;-78
2022/11/04 03:33:13;;;;;;;21.90;14.80;;;;;;;8.58;100.00;98190.86;106338;1286;58879;-78
2022/11/04 03:35:40;;;;;;;22.20;14.00;;;;;;;8.56;100.00;98186.73;105775;1295;59190;-78
2022/11/04 03:38:06;;;;;;;18.20;14.40;;;;;;;8.55;100.00;98184.86;105770;1292;66787;-78
2022/11/04 03:40:33;;;;;;;19.20;15.10;;;;;;;8.53;100.00;98178.27;105745;1297;60807;-77
2022/11/04 03:43:08;;;;;;;23.10;14.90;;;;;;;8.52;100.00;98173.94;105732;1292;64238;-78
2022/11/04 03:45:36;;;;;;;22.10;15.80;;;;;;;8.50;100.00;98170.73;105757;1295;59071;-78
2022/11/04 03:48:04;;;;;;;22.40;16.40;;;;;;;8.46;100.00;98165.50;105746;1289;58908;-78
2022/11/04 03:50:43;;;;;;;21.10;16.60;;;;;;;8.43;100.00;98164.98;105681;1293;67073;-78
2022/11/04 03:53:11;;;;;;;20.50;15.90;;;;;;;8.39;100.00;98163.69;105782;1292;60974;-78
2022/11/04 03:55:54;;;;;;;21.10;16.60;;;;;;;8.35;100.00;98165.72;105746;1290;65031;-78
2022/11/04 03:58:47;;;;;;;24.50;16.80;;;;;;;8.29;100.00;98171.06;105763;1292;58912;-78
2022/11/04 04:01:31;;;;;;;23.30;16.40;;;;;;;8.23;100.00;98175.23;105767;1294;59028;-78
2022/11/04 04:04:16;;;;;;;20.90;16.00;;;;;;;8.18;100.00;98172.60;105565;1297;65794;-78
2022/11/04 04:06:45;;;;;;;22.10;15.80;;;;;;;8.13;100.00;98167.67;105773;1289;59693;-78
2022/11/04 04:09:30;;;;;;;19.00;16.10;;;;;;;8.07;100.00;98166.98;105654;1295;64938;-78
2022/11/04 04:12:19;;;;;;;21.10;15.90;;;;;;;8.02;100.00;98162.58;105865;1290;58954;-78
2022/11/04 04:14:51;;;;;;;23.30;17.40;;;;;;;7.97;100.00;98160.98;106318;1285;59508;-78
2022/11/04 04:17:31;;;;;;;27.50;19.50;;;;;;;7.93;100.00;98163.55;106337;1278;64385;-78
2022/11/04 04:20:02;;;;;;;22.90;18.40;;;;;;;7.88;100.00;98161.73;106248;1280;60811;-79
2022/11/04 04:22:55;;;;;;;21.30;17.20;;;;;;;7.83;100.00;98155.00;106075;1289;227430;-77
2022/11/04 04:28:14;;;;;;;20.50;15.60;;;;;;;7.76;100.00;98149.34;106315;1285;58738;-78
2022/11/04 04:30:42;;;;;;;19.00;16.70;;;;;;;7.73;100.00;98148.64;106318;1286;66789;-78
2022/11/04 04:33:17;;;;;;;27.20;20.40;;;;;;;7.70;100.00;98146.39;106333;1284;60751;-77
2022/11/04 04:35:53;;;;;;;24.10;19.70;;;;;;;7.66;100.00;98133.02;106037;1286;71122;-78
2022/11/04 04:47:18;;;;;;;46.00;35.50;;;;;;;7.47;100.00;98140.49;106324;1286;59814;-78
2022/11/04 04:49:50;;;;;;;36.60;30.10;;;;;;;7.42;100.00;98136.78;106303;1291;64777;-78
2022/11/04 04:52:18;;;;;;;29.90;23.50;;;;;;;7.38;100.00;98137.63;106308;1293;59148;-78
2022/11/04 04:54:44;;;;;;;30.60;23.80;;;;;;;7.34;100.00;98136.13;106349;1285;58930;-78
2022/11/04 04:57:11;;;;;;;30.10;24.30;;;;;;;7.30;100.00;98134.59;106330;1285;66141;-77
2022/11/04 04:59:38;;;;;;;29.70;21.60;;;;;;;7.26;100.00;98134.37;106124;1288;60041;-77
2022/11/04 05:02:04;;;;;;;26.90;22.70;;;;;;;7.21;100.00;98134.34;106322;1284;65027;-78
2022/11/04 05:04:31;;;;;;;25.10;21.40;;;;;;;7.17;100.00;98130.33;105988;1291;59025;-78
2022/11/04 05:06:58;;;;;;;32.40;29.10;;;;;;;7.15;100.00;98128.21;106074;1285;58926;-78
2022/11/04 05:09:24;;;;;;;24.60;21.90;;;;;;;7.12;100.00;98124.33;106347;1285;65727;-78
2022/11/04 05:11:51;;;;;;;28.00;19.80;;;;;;;7.11;100.00;98121.94;106292;1282;59812;-78
2022/11/04 05:14:18;;;;;;;29.20;21.90;;;;;;;7.10;100.00;98123.41;106334;1284;63770;-78
2022/11/04 05:16:45;;;;;;;27.70;18.20;;;;;;;7.09;100.00;98121.90;106352;1278;59199;-77
2022/11/04 05:19:11;;;;;;;25.20;16.80;;;;;;;7.07;100.00;98124.68;106351;1285;58846;-78
2022/11/04 05:21:38;;;;;;;21.40;15.70;;;;;;;7.04;100.00;98122.21;106112;1287;66859;-79
2022/11/04 05:24:05;;;;;;;22.60;16.50;;;;;;;7.02;100.00;98121.64;106096;1284;59010;-78
2022/11/04 05:26:31;;;;;;;23.10;16.80;;;;;;;7.01;100.00;98121.13;106355;1285;64938;-79
2022/11/04 05:28:58;;;;;;;23.00;16.50;;;;;;;7.02;100.00;98114.39;106030;1291;58913;-78
2022/11/04 05:31:26;;;;;;;25.10;17.10;;;;;;;7.04;100.00;98112.13;106363;1285;58731;-78
2022/11/04 05:33:53;;;;;;;22.60;17.40;;;;;;;7.09;100.00;98110.95;106364;1285;66169;-78
2022/11/04 05:36:19;;;;;;;23.00;17.60;;;;;;;7.13;100.00;98109.80;106366;1292;59664;-78
2022/11/04 05:38:50;;;;;;;25.40;17.10;;;;;;;7.17;100.00;98111.63;106069;1287;63779;-78
2022/11/04 05:41:27;;;;;;;23.70;16.80;;;;;;;7.21;100.00;98109.09;106095;1289;59083;-78
2022/11/04 05:43:59;;;;;;;27.00;16.30;;;;;;;7.26;100.00;98109.45;106409;1292;58745;-77
2022/11/04 05:46:26;;;;;;;23.40;17.00;;;;;;;7.31;100.00;98108.56;106364;1285;66788;-78
2022/11/04 05:48:53;;;;;;;22.30;18.20;;;;;;;7.37;100.00;98107.64;106247;1288;59643;-78
2022/11/04 05:51:23;;;;;;;24.00;17.70;;;;;;;7.42;100.00;98108.20;106375;1285;65231;-78
2022/11/04 05:53:50;;;;;;;23.90;16.10;;;;;;;7.46;100.00;98105.59;106373;1285;58882;-78
2022/11/04 05:56:16;;;;;;;24.00;17.20;;;;;;;7.52;100.00;98100.42;106359;1287;58832;-78
2022/11/04 05:58:43;;;;;;;22.30;17.90;;;;;;;7.57;100.00;98099.16;106310;1278;66782;-77
2022/11/04 06:01:36;;;;;;;140.20;65.00;;;;;;;7.62;100.00;98104.83;106143;1287;59712;-78
2022/11/04 06:04:04;;;;;;;73.20;42.20;;;;;;;7.67;100.00;98103.23;106354;1292;65000;-78
2022/11/04 06:06:34;;;;;;;23.30;16.90;;;;;;;7.73;100.00;98104.83;106358;1284;58848;-78
2022/11/04 06:09:01;;;;;;;24.10;16.10;;;;;;;7.78;100.00;98100.37;106354;1285;58857;-78
2022/11/04 06:11:28;;;;;;;20.50;15.70;;;;;;;7.83;100.00;98105.33;106073;1289;67054;-78
2022/11/04 06:13:56;;;;;;;22.70;15.60;;;;;;;7.88;100.00;98099.70;106071;1288;61064;-78
2022/11/04 06:16:24;;;;;;;19.70;15.90;;;;;;;7.93;100.00;98100.92;105791;1294;65050;-78
2022/11/04 06:18:51;;;;;;;17.70;13.50;;;;;;;7.99;100.00;98098.94;106046;1293;59256;-78
2022/11/04 06:21:25;;;;;;;19.60;15.70;;;;;;;8.04;100.00;98096.61;106075;1288;58951;-77
2022/11/04 06:23:56;;;;;;;22.50;15.60;;;;;;;8.11;100.00;98096.31;106067;1287;65782;-79
2022/11/04 06:26:25;;;;;;;21.40;16.20;;;;;;;8.17;100.00;98100.30;106061;1289;59991;-78
2022/11/04 06:28:52;;;;;;;22.50;15.50;;;;;;;8.21;100.00;98097.86;106039;1288;63792;-78
2022/11/04 06:31:20;;;;;;;22.40;16.10;;;;;;;8.27;100.00;98099.05;105905;1292;58978;-78
2022/11/04 06:33:47;;;;;;;22.90;15.20;;;;;;;8.31;100.00;98097.70;105956;1290;59234;-79
2022/11/04 06:36:16;;;;;;;20.80;16.10;;;;;;;8.35;100.00;98101.28;105871;1292;65829;-78
2022/11/04 06:38:43;;;;;;;28.90;21.80;;;;;;;8.41;100.00;98102.32;106072;1290;59726;-77
2022/11/04 06:41:13;;;;;;;23.30;18.10;;;;;;;8.47;100.00;98102.23;106069;1288;64206;-78
2022/11/04 06:43:40;;;;;;;21.00;14.30;;;;;;;8.54;100.00;98098.57;106302;1286;58858;-78
2022/11/04 06:46:23;;;;;;;22.40;15.40;;;;;;;8.60;100.00;98098.95;106365;1292;58856;-79
2022/11/04 06:48:50;;;;;;;19.20;13.90;;;;;;;8.67;100.00;98104.33;106334;1284;66014;-78
2022/11/04 06:51:17;;;;;;;18.30;13.30;;;;;;;8.73;100.00;98105.81;106380;1285;60801;-78
2022/11/04 06:53:43;;;;;;;17.70;13.70;;;;;;;8.80;100.00;98102.13;106326;1292;64829;-79
2022/11/04 06:56:10;;;;;;;22.00;14.00;;;;;;;8.87;100.00;98100.56;106270;1289;59160;-78
2022/11/04 06:58:37;;;;;;;16.10;13.00;;;;;;;8.95;100.00;98100.86;106349;1278;58916;-79
2022/11/04 07:01:03;;;;;;;16.40;12.80;;;;;;;9.04;100.00;98107.23;106329;1279;66815;-78
2022/11/04 07:03:30;;;;;;;15.30;13.40;;;;;;;9.11;100.00;98109.54;106259;1292;60897;-79
2022/11/04 07:05:56;;;;;;;18.50;13.80;;;;;;;9.20;100.00;98108.37;106365;1285;63767;-78
2022/11/04 07:08:23;;;;;;;18.70;13.00;;;;;;;9.28;100.00;98102.42;106370;1278;59052;-78
2022/11/04 07:10:50;;;;;;;15.80;12.60;;;;;;;9.36;100.00;98098.66;106332;1284;58837;-79
2022/11/04 07:13:16;;;;;;;18.30;12.80;;;;;;;9.44;100.00;98103.48;106302;1286;66747;-78
2022/11/04 07:15:43;;;;;;;20.50;13.30;;;;;;;9.52;100.00;98100.24;106359;1285;59144;-78
2022/11/04 07:18:10;;;;;;;20.50;13.60;;;;;;;9.60;100.00;98094.46;106351;1285;63747;-77
2022/11/04 07:20:37;;;;;;;15.50;12.40;;;;;;;9.66;100.00;98088.50;106083;1290;58867;-79
2022/11/04 07:23:03;;;;;;;16.20;13.20;;;;;;;9.74;100.00;98081.88;106355;1292;58844;-78
2022/11/04 07:25:30;;;;;;;21.60;13.10;;;;;;;9.81;100.00;98081.30;106348;1290;66012;-77
2022/11/04 07:27:57;;;;;;;17.10;12.80;;;;;;;9.90;100.00;98080.46;106329;1292;59703;-78
2022/11/04 07:30:23;;;;;;;15.20;12.40;;;;;;;9.99;100.00;98080.82;106344;1284;64201;-79
2022/11/04 07:32:50;;;;;;;15.50;12.40;;;;;;;10.07;100.00;98081.74;106344;1285;58953;-79
2022/11/04 07:35:17;;;;;;;15.40;13.00;;;;;;;10.18;100.00;98078.73;106348;1286;58735;-77
2022/11/04 07:37:44;;;;;;;17.60;13.40;;;;;;;10.29;100.00;98080.34;106328;1284;66232;-79
2022/11/04 07:40:11;;;;;;;18.20;13.50;;;;;;;10.42;100.00;98080.42;106336;1284;60718;-79
2022/11/04 07:42:37;;;;;;;16.30;12.40;;;;;;;10.50;100.00;98079.50;106106;1295;63757;-78
2022/11/04 07:45:04;;;;;;;16.60;11.90;;;;;;;10.61;100.00;98076.20;106326;1284;58875;-78
2022/11/04 07:47:31;;;;;;;15.40;12.20;;;;;;;10.71;100.00;98075.89;106118;1289;58909;-78
2022/11/04 07:49:58;;;;;;;17.50;11.60;;;;;;;10.79;100.00;98069.20;106357;1284;75553;-78
2022/11/04 07:52:24;;;;;;;16.30;11.00;;;;;;;10.82;100.00;98077.81;106361;1286;60797;-77
2022/11/04 07:54:51;;;;;;;13.90;11.10;;;;;;;10.88;100.00;98075.52;106065;1287;73033;-78
2022/11/04 07:57:17;;;;;;;14.10;10.20;;;;;;;10.96;100.00;98074.52;106317;1280;58905;-78
2022/11/04 07:59:44;;;;;;;14.40;10.70;;;;;;;11.05;100.00;98076.96;106354;1284;58987;-79
2022/11/04 08:02:11;;;;;;;17.10;10.60;;;;;;;11.14;100.00;98073.39;106342;1286;65715;-78
2022/11/04 08:04:37;;;;;;;17.10;10.50;;;;;;;11.24;100.00;98070.42;106333;1286;60750;-78
2022/11/04 08:07:07;;;;;;;15.40;10.70;;;;;;;11.35;100.00;98070.86;106329;1283;65295;-78
2022/11/04 08:09:35;;;;;;;15.40;10.60;;;;;;;11.46;100.00;98066.80;105910;1297;58897;-79
2022/11/04 08:12:04;;;;;;;14.20;11.20;;;;;;;11.55;100.00;98062.96;105921;1291;58952;-78
2022/11/04 08:14:31;;;;;;;14.20;11.10;;;;;;;11.66;100.00;98063.25;106312;1285;67037;-78
2022/11/04 08:16:58;;;;;;;13.30;10.20;;;;;;;11.78;100.00;98062.04;106339;1284;59643;-79
2022/11/04 08:19:25;;;;;;;11.40;9.60;;;;;;;11.92;100.00;98057.27;106342;1292;64810;-79
2022/11/04 08:21:53;;;;;;;15.20;10.20;;;;;;;12.07;100.00;98051.73;106379;1284;58822;-78
2022/11/04 08:24:19;;;;;;;12.60;9.60;;;;;;;12.21;100.00;98055.70;106374;1292;58757;-78
2022/11/04 08:26:46;;;;;;;14.80;10.30;;;;;;;12.33;100.00;98052.08;106362;1292;65745;-78
2022/11/04 08:29:13;;;;;;;12.80;9.30;;;;;;;12.41;100.00;98047.13;106351;1285;60924;-79
2022/11/04 08:31:40;;;;;;;12.20;9.60;;;;;;;12.50;100.00;98047.16;106343;1285;62470;-78
2022/11/04 08:34:07;;;;;;;12.90;10.80;;;;;;;12.58;100.00;98039.34;106347;1292;58829;-78
2022/11/04 08:36:37;;;;;;;13.00;9.90;;;;;;;12.65;100.00;98036.93;106365;1292;58833;-78
2022/11/04 08:39:04;;;;;;;11.70;9.70;;;;;;;12.71;100.00;98036.01;106337;1285;66818;-78
2022/11/04 08:41:33;;;;;;;12.70;9.70;;;;;;;12.77;100.00;98030.47;106114;1287;60825;-79
2022/11/04 08:44:02;;;;;;;14.60;9.60;;;;;;;12.83;100.00;98027.59;106334;1285;63751;-78
2022/11/04 08:46:33;;;;;;;14.30;9.80;;;;;;;12.90;100.00;98026.66;106343;1286;58861;-77
2022/11/04 08:49:00;;;;;;;13.00;9.40;;;;;;;12.98;100.00;98023.23;106349;1286;59054;-77
2022/11/04 08:51:28;;;;;;;18.10;12.90;;;;;;;13.09;100.00;98017.90;106385;1285;65731;-78
2022/11/04 08:53:55;;;;;;;15.40;10.60;;;;;;;13.22;100.00;98009.98;106354;1286;60021;-78
2022/11/04 08:56:28;;;;;;;21.70;11.90;;;;;;;13.36;100.00;98013.27;106349;1285;63808;-77
2022/11/04 08:58:57;;;;;;;16.70;11.10;;;;;;;13.51;100.00;98013.98;106352;1285;58939;-78
2022/11/04 09:01:25;;;;;;;16.60;10.90;;;;;;;13.65;100.00;98008.73;106352;1285;58895;-78
2022/11/04 09:03:52;;;;;;;16.00;10.60;;;;;;;13.79;100.00;98003.64;106329;1290;66752;-77
2022/11/04 09:06:33;;;;;;;15.20;9.90;;;;;;;13.97;100.00;98004.76;106346;1285;59671;-78
2022/11/04 09:09:03;;;;;;;11.80;9.70;;;;;;;14.16;100.00;98004.73;106334;1292;63734;-78
2022/11/04 09:11:32;;;;;;;15.00;10.80;;;;;;;14.30;100.00;98003.05;106347;1284;58985;-78
2022/11/04 09:14:00;;;;;;;17.20;11.60;;;;;;;14.37;100.00;97996.84;106344;1284;58927;-78
2022/11/04 09:16:29;;;;;;;14.20;11.10;;;;;;;14.45;100.00;97997.54;106321;1269;66771;-78
2022/11/04 09:18:57;;;;;;;16.10;11.00;;;;;;;14.58;100.00;97994.72;106127;1285;59851;-77
2022/11/04 09:21:25;;;;;;;11.90;9.90;;;;;;;14.71;100.00;97994.73;106132;1288;64831;-78
2022/11/04 09:23:52;;;;;;;11.20;8.90;;;;;;;14.79;100.00;97987.65;106249;1278;58854;-77
2022/11/04 09:26:21;;;;;;;14.20;8.80;;;;;;;14.81;100.00;97987.23;106268;1288;59043;-78
2022/11/04 09:28:53;;;;;;;10.10;8.90;;;;;;;14.87;100.00;97990.63;106339;1285;65921;-78
2022/11/04 09:31:20;;;;;;;10.30;9.00;;;;;;;14.90;100.00;97987.63;106343;1284;60874;-77
2022/11/04 09:33:47;;;;;;;12.40;8.80;;;;;;;14.94;100.00;97981.99;106262;1289;63587;-78
2022/11/04 09:36:13;;;;;;;12.90;8.80;;;;;;;14.98;100.00;97976.40;106324;1279;58805;-78
2022/11/04 09:38:41;;;;;;;12.00;8.50;;;;;;;15.02;100.00;97972.50;106366;1285;59024;-78
2022/11/04 09:41:26;;;;;;;12.00;8.90;;;;;;;15.09;100.00;97971.71;106117;1288;65709;-78
2022/11/04 09:44:11;;;;;;;10.40;8.10;;;;;;;15.27;100.00;97969.67;106355;1284;59706;-78
2022/11/04 09:46:39;;;;;;;11.00;8.40;;;;;;;15.50;100.00;97965.52;106409;1278;64891;-78
2022/11/04 09:49:11;;;;;;;10.30;7.50;;;;;;;15.65;100.00;97959.82;106329;1285;59034;-78
2022/11/04 09:51:40;;;;;;;9.50;7.50;;;;;;;15.78;100.00;97957.80;106346;1289;58728;-78
2022/11/04 09:54:20;;;;;;;9.80;7.80;;;;;;;15.88;100.00;97957.00;106402;1284;65972;-78
2022/11/04 09:56:50;;;;;;;8.70;7.20;;;;;;;16.06;100.00;97953.67;106133;1280;68642;-78
2022/11/04 09:59:23;;;;;;;10.80;7.90;;;;;;;16.21;100.00;97951.64;106375;1278;63870;-78
2022/11/04 10:01:59;;;;;;;9.60;6.90;;;;;;;16.34;100.00;97956.14;106475;1284;58886;-79
2022/11/04 10:04:45;;;;;;;10.40;8.00;;;;;;;16.43;100.00;97960.20;106151;1289;59068;-78
2022/11/04 10:07:24;;;;;;;10.70;8.20;;;;;;;16.44;100.00;97959.09;106627;1284;64910;-79
2022/11/04 10:10:00;;;;;;;11.00;8.30;;;;;;;16.37;100.00;97954.80;106358;1281;58680;-79
2022/11/04 10:12:39;;;;;;;8.70;7.40;;;;;;;16.32;100.00;97952.44;106588;1278;63149;-79
2022/11/04 10:15:21;;;;;;;11.20;8.60;;;;;;;16.32;100.00;97946.33;106649;1286;58692;-79
2022/11/04 10:18:01;;;;;;;11.20;7.30;;;;;;;16.32;100.00;97943.20;106529;1285;58957;-79
2022/11/04 10:20:51;;;;;;;12.00;7.50;;;;;;;16.30;100.00;97941.61;106556;1277;66916;-79
2022/11/04 10:23:22;;;;;;;11.50;7.50;;;;;;;16.22;100.00;97943.64;106628;1278;60336;-79
2022/11/04 10:26:01;;;;;;;9.70;7.80;;;;;;;16.19;100.00;97945.98;106589;1277;62689;-81
2022/11/04 10:28:57;;;;;;;9.90;7.80;;;;;;;16.14;100.00;97945.58;106641;1278;59077;-81
2022/11/04 10:31:24;;;;;;;12.80;8.40;;;;;;;16.10;100.00;97948.39;105740;1295;59109;-80
2022/11/04 10:33:56;;;;;;;10.50;7.90;;;;;;;16.09;100.00;97948.11;105598;1295;67193;-77
2022/11/04 10:36:23;;;;;;;10.50;7.50;;;;;;;16.09;100.00;97946.70;105595;1297;59918;-79
2022/11/04 10:38:54;;;;;;;10.50;7.40;;;;;;;16.09;100.00;97943.30;105598;1295;65063;-79
2022/11/04 10:41:36;;;;;;;9.70;7.10;;;;;;;16.09;100.00;97940.58;105618;1295;59409;-78
2022/11/04 10:44:07;;;;;;;9.50;7.50;;;;;;;16.14;100.00;97937.34;105618;1294;58808;-78
2022/11/04 10:46:52;;;;;;;10.00;7.90;;;;;;;16.17;100.00;97931.96;105612;1295;66932;-79
2022/11/04 10:49:51;;;;;;;11.30;7.50;;;;;;;16.22;100.00;97932.77;105609;1293;59638;-79
2022/11/04 10:52:17;;;;;;;14.00;7.70;;;;;;;16.24;100.00;97932.35;105600;1289;64761;-78
2022/11/04 10:54:47;;;;;;;10.50;7.60;;;;;;;16.26;100.00;97931.58;105597;1300;58886;-79
2022/11/04 10:57:23;;;;;;;7.70;6.70;;;;;;;16.31;100.00;97926.05;105615;1293;59067;-79
2022/11/04 10:59:52;;;;;;;11.40;7.80;;;;;;;16.36;100.00;97926.06;105607;1293;66075;-78
2022/11/04 11:02:38;;;;;;;15.20;9.10;;;;;;;16.41;100.00;97920.70;105601;1294;59827;-78
2022/11/04 11:05:13;;;;;;;9.10;7.50;;;;;;;16.47;100.00;97916.67;105601;1295;65252;-79
2022/11/04 11:07:40;;;;;;;10.50;7.70;;;;;;;16.51;100.00;97911.52;105657;1295;59035;-79
2022/11/04 11:10:17;;;;;;;11.50;9.40;;;;;;;16.55;100.00;97913.61;106327;1288;59243;-80
2022/11/04 11:12:54;;;;;;;9.50;7.60;;;;;;;16.55;100.00;97916.07;106332;1277;66776;-79
2022/11/04 11:15:35;;;;;;;10.70;7.90;;;;;;;16.52;100.00;97915.33;106378;1285;59721;-78
2022/11/04 11:18:11;;;;;;;10.90;8.30;;;;;;;16.48;100.00;97916.33;106113;1288;63799;-79
2022/11/04 11:20:39;;;;;;;13.60;9.30;;;;;;;16.44;100.00;97912.42;106401;1285;59053;-79
2022/11/04 11:23:47;;;;;;;11.80;8.80;;;;;;;16.41;100.00;97912.77;106419;1284;58896;-80
2022/11/04 11:26:20;;;;;;;12.70;8.40;;;;;;;16.41;100.00;97909.50;106377;1276;65908;-79
2022/11/04 11:28:50;;;;;;;12.00;8.30;;;;;;;16.46;100.00;97905.73;106387;1284;59725;-78
2022/11/04 11:31:23;;;;;;;12.10;7.90;;;;;;;16.56;100.00;97899.69;106384;1285;62349;-78
2022/11/04 11:33:55;;;;;;;11.50;6.80;;;;;;;16.63;100.00;97901.55;106375;1285;58955;-79
2022/11/04 11:36:36;;;;;;;9.30;7.20;;;;;;;16.70;100.00;97902.42;106369;1285;58971;-78
2022/11/04 11:39:15;;;;;;;9.70;6.30;;;;;;;16.74;100.00;97898.95;106397;1284;64354;-79
2022/11/04 11:41:51;;;;;;;10.30;6.80;;;;;;;16.75;100.00;97898.98;106235;1285;58991;-79
2022/11/04 11:44:26;;;;;;;9.20;6.90;;;;;;;16.76;100.00;97901.98;106358;1278;63996;-79
2022/11/04 11:47:00;;;;;;;8.80;7.00;;;;;;;16.75;100.00;97897.59;106374;1285;58870;-79
2022/11/04 11:49:31;;;;;;;12.70;7.00;;;;;;;16.77;100.00;97895.27;106303;1278;58695;-79
2022/11/04 11:52:30;;;;;;;12.50;7.20;;;;;;;16.79;100.00;97891.27;106112;1288;67103;-78
2022/11/04 11:55:15;;;;;;;11.60;7.10;;;;;;;16.83;100.00;97891.22;106368;1278;67902;-79
2022/11/04 11:57:51;;;;;;;10.20;7.40;;;;;;;16.83;100.00;97886.50;106085;1288;64594;-79
2022/11/04 12:00:21;;;;;;;11.70;7.90;;;;;;;16.82;100.00;97883.20;106346;1285;58803;-78